Time;durP1;ratioP1;P1;durP2;ratioP2;P2;SDS_P1;SDS_P2;PMS_P1;PMS_P2;Temp;Humidity;BMP_temperature;BMP_pressure;BME280_temperature;BME280_humidity;BME280_pressure;Samples;Min_cycle;Max_cycle;Signal;HPM_P1;HPM_P2
2022/05/11 00:01:16;;;;;;;6.80;4.03;;;;;;;;;;5044283;28;20095;-63
2022/05/11 00:03:42;;;;;;;8.95;4.05;;;;;;;;;;5056417;28;20085;-63
2022/05/11 00:06:09;;;;;;;9.02;4.20;;;;;;;;;;5057124;28;20079;-64
2022/05/11 00:08:35;;;;;;;8.85;4.25;;;;;;;;;;5050798;28;20111;-63
2022/05/11 00:11:02;;;;;;;9.85;4.05;;;;;;;;;;5048462;28;20037;-64
2022/05/11 00:13:28;;;;;;;8.23;4.70;;;;;;;;;;5049671;28;20041;-64
2022/05/11 00:15:54;;;;;;;6.22;4.32;;;;;;;;;;5049743;28;20095;-63
2022/05/11 00:18:20;;;;;;;8.20;4.55;;;;;;;;;;5054424;28;20040;-63
2022/05/11 00:20:46;;;;;;;7.72;4.50;;;;;;;;;;5049613;28;20041;-63
2022/05/11 00:23:12;;;;;;;9.10;4.50;;;;;;;;;;5049593;28;20090;-64
2022/05/11 00:25:38;;;;;;;7.53;4.40;;;;;;;;;;5049550;28;20041;-63
2022/05/11 00:28:04;;;;;;;6.45;4.68;;;;;;;;;;5049205;28;20040;-63
2022/05/11 00:30:31;;;;;;;8.68;4.82;;;;;;;;;;5044868;28;20033;-63
2022/05/11 00:32:58;;;;;;;9.15;4.57;;;;;;;;;;5048108;28;20613;-63
2022/05/11 00:35:25;;;;;;;8.07;4.40;;;;;;;;;;5056528;28;20387;-63
2022/05/11 00:37:51;;;;;;;6.97;4.05;;;;;;;;;;5045692;28;20454;-63
2022/05/11 00:40:18;;;;;;;7.22;3.95;;;;;;;;;;5050108;28;20072;-64
2022/05/11 00:42:44;;;;;;;10.98;4.40;;;;;;;;;;5046791;28;20562;-64
2022/05/11 00:45:10;;;;;;;6.07;4.22;;;;;;;;;;5046974;28;20036;-63
2022/05/11 00:47:38;;;;;;;9.20;4.10;;;;;;;;;;5051995;28;20259;-63
2022/05/11 00:50:07;;;;;;;6.43;4.13;;;;;;;;;;5050390;28;20501;-63
2022/05/11 00:52:42;;;;;;;7.45;3.92;;;;;;;;;;5053890;28;20048;-63
2022/05/11 00:55:12;;;;;;;7.95;4.18;;;;;;;;;;5046526;28;20485;-63
2022/05/11 00:57:49;;;;;;;7.67;4.53;;;;;;;;;;5043254;28;20407;-63
2022/05/11 01:00:15;;;;;;;7.03;3.92;;;;;;;;;;5046893;28;20060;-63
2022/05/11 01:02:42;;;;;;;8.27;4.32;;;;;;;;;;5046846;28;20097;-64
2022/05/11 01:05:08;;;;;;;7.22;4.22;;;;;;;;;;5047221;28;20036;-63
2022/05/11 01:07:35;;;;;;;8.60;3.88;;;;;;;;;;5053284;28;20041;-63
2022/05/11 01:10:02;;;;;;;6.93;3.90;;;;;;;;;;5048926;28;20037;-63
2022/05/11 01:12:31;;;;;;;8.00;4.13;;;;;;;;;;5048805;28;20121;-63
2022/05/11 01:15:00;;;;;;;8.07;4.32;;;;;;;;;;5053205;28;20037;-63
2022/05/11 01:17:26;;;;;;;6.43;4.10;;;;;;;;;;5049707;28;20072;-64
2022/05/11 01:19:53;;;;;;;5.05;3.92;;;;;;;;;;5047810;28;20037;-63
2022/05/11 01:22:22;;;;;;;7.00;4.43;;;;;;;;;;5054129;28;20063;-63
2022/05/11 01:24:50;;;;;;;6.63;4.25;;;;;;;;;;5057420;28;20118;-63
2022/05/11 01:27:27;;;;;;;8.98;4.18;;;;;;;;;;5049804;28;20052;-63
2022/05/11 01:29:54;;;;;;;7.43;3.95;;;;;;;;;;5045787;28;20044;-63
2022/05/11 01:32:21;;;;;;;7.75;3.85;;;;;;;;;;5048860;28;20041;-64
2022/05/11 01:34:49;;;;;;;8.50;4.40;;;;;;;;;;5049712;28;20028;-64
2022/05/11 01:37:15;;;;;;;8.25;4.30;;;;;;;;;;5056326;28;20029;-63
2022/05/11 01:39:44;;;;;;;8.15;4.38;;;;;;;;;;5053571;28;20059;-63
2022/05/11 01:42:11;;;;;;;7.75;4.13;;;;;;;;;;5051116;28;20044;-64
2022/05/11 01:44:37;;;;;;;7.65;3.90;;;;;;;;;;5056958;28;20066;-63
2022/05/11 01:47:03;;;;;;;8.73;4.43;;;;;;;;;;5055838;28;20037;-63
2022/05/11 01:49:30;;;;;;;7.63;4.50;;;;;;;;;;5056317;28;20059;-63
2022/05/11 01:51:57;;;;;;;5.90;4.13;;;;;;;;;;5069934;28;20040;-63
2022/05/11 01:54:24;;;;;;;8.80;4.68;;;;;;;;;;5063127;28;20049;-63
2022/05/11 01:56:50;;;;;;;7.05;4.57;;;;;;;;;;5062568;28;20552;-63
2022/05/11 01:59:16;;;;;;;9.15;4.50;;;;;;;;;;5050851;28;20037;-63
2022/05/11 02:01:42;;;;;;;8.50;4.05;;;;;;;;;;5053276;28;20698;-63
2022/05/11 02:09:41;;;;;;;6.47;3.83;;;;;;;;;;5054178;28;20049;-63
2022/05/11 02:12:08;;;;;;;7.35;4.25;;;;;;;;;;5073318;28;20216;-64
2022/05/11 02:14:34;;;;;;;6.70;4.18;;;;;;;;;;5048164;28;20045;-63
2022/05/11 02:17:00;;;;;;;7.60;3.88;;;;;;;;;;5052673;28;20110;-63
2022/05/11 02:19:27;;;;;;;6.18;3.97;;;;;;;;;;5060667;28;20052;-63
2022/05/11 02:21:53;;;;;;;6.90;3.90;;;;;;;;;;5053209;28;20063;-64
2022/05/11 02:24:19;;;;;;;6.70;3.80;;;;;;;;;;5065917;28;20418;-63
2022/05/11 02:26:45;;;;;;;7.90;3.85;;;;;;;;;;5056623;28;20043;-63
2022/05/11 02:29:11;;;;;;;5.80;3.95;;;;;;;;;;5056746;28;20406;-63
2022/05/11 02:31:37;;;;;;;9.05;4.43;;;;;;;;;;5060810;28;20033;-63
2022/05/11 02:34:06;;;;;;;7.10;4.50;;;;;;;;;;5063326;28;20040;-63
2022/05/11 02:36:32;;;;;;;5.93;3.70;;;;;;;;;;5059995;28;20044;-64
2022/05/11 02:38:58;;;;;;;7.07;4.28;;;;;;;;;;5052871;28;20036;-64
2022/05/11 02:41:24;;;;;;;6.47;4.00;;;;;;;;;;5059483;28;20037;-64
2022/05/11 02:43:50;;;;;;;8.05;4.40;;;;;;;;;;5054536;28;20103;-64
2022/05/11 02:46:16;;;;;;;8.40;3.92;;;;;;;;;;5051510;28;20045;-64
2022/05/11 02:48:42;;;;;;;6.93;3.58;;;;;;;;;;5052369;28;20041;-64
2022/05/11 02:51:09;;;;;;;6.75;3.67;;;;;;;;;;5053692;28;20040;-64
2022/05/11 02:53:35;;;;;;;9.25;4.35;;;;;;;;;;5064415;28;20486;-64
2022/05/11 02:56:02;;;;;;;6.43;3.90;;;;;;;;;;5058649;28;20033;-64
2022/05/11 02:58:29;;;;;;;8.52;4.20;;;;;;;;;;5050449;28;20045;-64
2022/05/11 03:00:57;;;;;;;7.40;4.00;;;;;;;;;;5050591;22;20073;-60
2022/05/11 03:03:23;;;;;;;8.18;4.40;;;;;;;;;;5031710;28;20480;-59
2022/05/11 03:05:52;;;;;;;7.30;3.80;;;;;;;;;;5033162;28;20065;-59
2022/05/11 03:08:18;;;;;;;8.35;3.78;;;;;;;;;;5008213;28;20492;-59
2022/05/11 03:10:44;;;;;;;7.03;4.05;;;;;;;;;;5032458;28;20533;-59
2022/05/11 03:13:10;;;;;;;7.68;4.10;;;;;;;;;;5031735;28;20065;-60
2022/05/11 03:15:37;;;;;;;5.10;3.42;;;;;;;;;;5031002;28;20043;-59
2022/05/11 03:18:03;;;;;;;9.40;3.80;;;;;;;;;;5015499;28;20466;-59
2022/05/11 03:20:29;;;;;;;9.18;4.03;;;;;;;;;;5031491;28;20037;-60
2022/05/11 03:22:56;;;;;;;7.40;4.15;;;;;;;;;;5033100;28;20033;-59
2022/05/11 03:25:23;;;;;;;6.93;3.58;;;;;;;;;;5041675;28;20061;-60
2022/05/11 03:27:49;;;;;;;9.15;4.40;;;;;;;;;;5021533;28;20034;-60
2022/05/11 03:30:16;;;;;;;7.72;4.05;;;;;;;;;;5013157;28;20061;-60
2022/05/11 03:35:27;;;;;;;7.53;3.92;;;;;;;;;;5031906;28;20045;-60
2022/05/11 03:37:53;;;;;;;5.85;3.53;;;;;;;;;;5013326;28;20061;-60
2022/05/11 03:40:19;;;;;;;6.75;3.97;;;;;;;;;;5032399;28;20075;-60
2022/05/11 03:42:45;;;;;;;6.75;3.90;;;;;;;;;;5013624;28;20483;-59
2022/05/11 03:45:11;;;;;;;7.30;3.75;;;;;;;;;;5031924;28;20040;-59
2022/05/11 03:47:37;;;;;;;5.93;3.83;;;;;;;;;;5013511;28;20049;-59
2022/05/11 03:50:03;;;;;;;8.55;4.05;;;;;;;;;;5031042;28;20068;-60
2022/05/11 03:52:29;;;;;;;7.85;4.05;;;;;;;;;;5031701;28;20049;-59
2022/05/11 03:54:55;;;;;;;8.55;4.30;;;;;;;;;;5031618;28;20033;-60
2022/05/11 03:57:21;;;;;;;6.88;4.22;;;;;;;;;;5026654;28;20517;-60
2022/05/11 03:59:47;;;;;;;6.97;3.75;;;;;;;;;;5036238;28;20492;-59
2022/05/11 04:02:13;;;;;;;8.35;4.13;;;;;;;;;;5004742;28;20048;-60
2022/05/11 04:04:39;;;;;;;8.48;4.32;;;;;;;;;;5023683;28;20124;-60
2022/05/11 04:07:06;;;;;;;8.48;3.83;;;;;;;;;;5022109;28;20041;-60
2022/05/11 04:09:32;;;;;;;8.95;4.30;;;;;;;;;;5030674;28;20140;-60
2022/05/11 04:11:58;;;;;;;8.85;4.32;;;;;;;;;;5035779;28;20045;-61
2022/05/11 04:14:24;;;;;;;8.27;4.10;;;;;;;;;;5027022;28;20124;-60
2022/05/11 04:16:59;;;;;;;7.65;4.60;;;;;;;;;;5031834;28;20450;-60
2022/05/11 04:19:25;;;;;;;9.50;4.85;;;;;;;;;;5030763;28;20045;-60
2022/05/11 04:21:51;;;;;;;8.65;4.28;;;;;;;;;;5023662;28;20087;-60
2022/05/11 04:24:17;;;;;;;8.50;4.53;;;;;;;;;;5012559;28;20437;-60
2022/05/11 04:26:43;;;;;;;6.68;3.78;;;;;;;;;;5022279;28;20034;-60
2022/05/11 04:29:09;;;;;;;10.90;4.30;;;;;;;;;;5019774;28;20041;-60
2022/05/11 04:31:36;;;;;;;8.85;4.10;;;;;;;;;;5020843;28;20110;-60
2022/05/11 04:34:02;;;;;;;10.63;4.28;;;;;;;;;;5031053;28;20566;-60
2022/05/11 04:36:28;;;;;;;8.13;4.55;;;;;;;;;;5028621;28;20164;-60
2022/05/11 04:38:54;;;;;;;9.02;4.30;;;;;;;;;;5015612;28;20502;-60
2022/05/11 04:41:20;;;;;;;8.75;4.47;;;;;;;;;;5029928;28;20209;-60
2022/05/11 04:43:46;;;;;;;11.70;5.10;;;;;;;;;;5029131;28;20566;-59
2022/05/11 04:46:12;;;;;;;7.75;4.47;;;;;;;;;;5025659;28;20030;-59
2022/05/11 04:48:38;;;;;;;10.80;4.63;;;;;;;;;;5035663;28;20037;-60
2022/05/11 04:51:04;;;;;;;8.18;4.57;;;;;;;;;;5007257;28;20046;-59
2022/05/11 04:53:30;;;;;;;11.13;5.03;;;;;;;;;;5031272;28;20038;-60
2022/05/11 04:55:56;;;;;;;10.85;4.90;;;;;;;;;;5035237;28;20037;-59
2022/05/11 04:58:22;;;;;;;6.38;4.68;;;;;;;;;;5033245;28;20052;-59
2022/05/11 05:00:48;;;;;;;8.90;4.70;;;;;;;;;;5024377;28;20030;-59
2022/05/11 05:03:15;;;;;;;12.27;5.10;;;;;;;;;;5014705;28;20622;-60
2022/05/11 05:05:41;;;;;;;10.60;5.93;;;;;;;;;;5032134;28;20029;-60
2022/05/11 05:08:08;;;;;;;11.65;6.70;;;;;;;;;;5038440;28;20029;-60
2022/05/11 05:10:34;;;;;;;11.45;6.60;;;;;;;;;;5035967;28;20035;-60
2022/05/11 05:13:02;;;;;;;11.63;7.07;;;;;;;;;;5038115;28;20407;-59
2022/05/11 05:15:28;;;;;;;11.65;7.47;;;;;;;;;;5027050;28;20037;-60
2022/05/11 05:17:54;;;;;;;14.88;8.35;;;;;;;;;;5040114;28;20029;-59
2022/05/11 05:20:21;;;;;;;15.57;8.98;;;;;;;;;;5037969;28;20049;-59
2022/05/11 05:22:47;;;;;;;14.32;9.13;;;;;;;;;;5037830;28;20041;-59
2022/05/11 05:25:13;;;;;;;16.05;9.32;;;;;;;;;;5036014;28;20033;-59
2022/05/11 05:27:39;;;;;;;16.70;9.35;;;;;;;;;;5033721;28;20442;-60
2022/05/11 05:32:50;;;;;;;16.13;10.40;;;;;;;;;;5030782;28;20072;-60
2022/05/11 05:35:17;;;;;;;17.23;9.52;;;;;;;;;;5030307;28;20084;-60
2022/05/11 05:37:43;;;;;;;18.38;10.23;;;;;;;;;;5030027;28;20048;-60
2022/05/11 05:40:10;;;;;;;15.93;9.40;;;;;;;;;;5035955;28;20037;-60
2022/05/11 05:42:36;;;;;;;16.45;9.85;;;;;;;;;;5032187;28;20064;-60
2022/05/11 05:45:02;;;;;;;16.98;9.45;;;;;;;;;;5023005;28;20081;-60
2022/05/11 05:47:28;;;;;;;15.63;9.00;;;;;;;;;;5033367;28;20128;-60
2022/05/11 05:49:54;;;;;;;11.60;8.65;;;;;;;;;;5033053;28;20049;-61
2022/05/11 05:52:21;;;;;;;14.20;7.80;;;;;;;;;;5031719;28;20470;-60
2022/05/11 05:54:47;;;;;;;10.93;6.88;;;;;;;;;;5032734;28;20128;-60
2022/05/11 05:57:14;;;;;;;12.70;6.70;;;;;;;;;;5030615;28;20037;-60
2022/05/11 05:59:40;;;;;;;14.10;7.30;;;;;;;;;;5025847;28;20088;-61
2022/05/11 06:02:09;;;;;;;9.43;6.47;;;;;;;;;;5029212;28;20041;-60
2022/05/11 06:04:35;;;;;;;11.35;5.97;;;;;;;;;;5032608;28;20041;-60
2022/05/11 06:07:01;;;;;;;11.90;6.28;;;;;;;;;;5027099;28;20545;-60
2022/05/11 06:09:28;;;;;;;11.35;6.43;;;;;;;;;;5028986;28;20037;-61
2022/05/11 06:11:54;;;;;;;11.10;6.82;;;;;;;;;;5030747;28;20037;-60
2022/05/11 06:14:20;;;;;;;11.77;6.63;;;;;;;;;;5032995;28;20044;-60
2022/05/11 06:16:46;;;;;;;12.50;8.07;;;;;;;;;;5031688;28;20413;-60
2022/05/11 06:19:12;;;;;;;17.95;8.20;;;;;;;;;;5028794;28;20037;-60
2022/05/11 06:21:38;;;;;;;14.25;8.77;;;;;;;;;;5032022;28;20510;-60
2022/05/11 06:24:05;;;;;;;14.40;8.95;;;;;;;;;;5032130;28;20041;-60
2022/05/11 06:26:30;;;;;;;15.20;8.25;;;;;;;;;;5032792;28;20410;-60
2022/05/11 06:28:57;;;;;;;14.90;8.73;;;;;;;;;;5032804;28;20041;-60
2022/05/11 06:31:23;;;;;;;12.35;7.63;;;;;;;;;;5030266;28;20312;-60
2022/05/11 06:33:50;;;;;;;13.00;7.25;;;;;;;;;;5031657;28;20038;-61
2022/05/11 06:36:16;;;;;;;11.07;6.70;;;;;;;;;;5029950;28;20067;-60
2022/05/11 06:38:42;;;;;;;12.25;6.28;;;;;;;;;;5031863;28;20403;-60
2022/05/11 06:41:13;;;;;;;10.65;5.55;;;;;;;;;;5031134;28;20446;-61
2022/05/11 06:43:39;;;;;;;;;;;;;;;;;;5026757;28;20080;-61
2022/05/11 06:46:05;;;;;;;10.77;5.65;;;;;;;;;;5013101;28;20327;-61
2022/05/11 06:48:32;;;;;;;11.90;5.47;;;;;;;;;;5028976;28;20069;-61
2022/05/11 06:50:58;;;;;;;11.98;4.55;;;;;;;;;;5023091;28;20076;-61
2022/05/11 06:53:24;;;;;;;9.13;4.55;;;;;;;;;;5029486;28;20484;-61
2022/05/11 07:01:20;;;;;;;7.43;3.65;;;;;;;;;;5031443;28;20053;-60
2022/05/11 07:03:46;;;;;;;6.47;3.05;;;;;;;;;;5032590;28;20041;-60
2022/05/11 07:06:12;;;;;;;6.57;3.30;;;;;;;;;;5031682;28;20053;-61
2022/05/11 07:08:44;;;;;;;7.13;3.00;;;;;;;;;;5028696;28;20045;-61
2022/05/11 07:13:55;;;;;;;7.82;2.85;;;;;;;;;;5030288;28;20053;-60
2022/05/11 07:16:23;;;;;;;7.78;2.88;;;;;;;;;;5027018;28;20128;-61
2022/05/11 07:18:49;;;;;;;12.75;2.97;;;;;;;;;;5023056;28;20120;-60
2022/05/11 07:21:15;;;;;;;10.48;2.90;;;;;;;;;;5015515;28;20099;-61
2022/05/11 07:23:41;;;;;;;7.22;3.17;;;;;;;;;;5031805;28;20038;-60
2022/05/11 07:26:07;;;;;;;11.80;2.72;;;;;;;;;;5031609;28;20041;-61
2022/05/11 07:28:33;;;;;;;6.45;1.90;;;;;;;;;;5028926;28;20052;-61
2022/05/11 07:30:59;;;;;;;5.18;2.33;;;;;;;;;;5030702;28;20450;-60
2022/05/11 07:33:27;;;;;;;6.22;2.30;;;;;;;;;;5022008;28;20033;-60
2022/05/11 07:35:53;;;;;;;7.20;1.67;;;;;;;;;;5030329;28;20029;-60
2022/05/11 07:38:19;;;;;;;5.18;1.83;;;;;;;;;;5020415;28;20424;-60
2022/05/11 07:40:45;;;;;;;7.82;2.10;;;;;;;;;;5031536;28;20041;-61
2022/05/11 07:43:12;;;;;;;4.88;2.15;;;;;;;;;;5031719;28;20037;-61
2022/05/11 07:45:38;;;;;;;6.03;1.70;;;;;;;;;;5030924;28;20030;-60
2022/05/11 07:48:05;;;;;;;6.15;2.15;;;;;;;;;;5024790;28;20108;-60
2022/05/11 07:50:31;;;;;;;9.60;2.00;;;;;;;;;;5020160;28;20523;-60
2022/05/11 07:52:58;;;;;;;8.60;2.40;;;;;;;;;;5012467;28;20042;-60
2022/05/11 07:55:25;;;;;;;5.57;1.85;;;;;;;;;;5013668;28;20037;-61
2022/05/11 08:00:56;;;;;;;3.72;1.48;;;;;;;;;;4965069;28;20047;-60
2022/05/11 08:03:22;;;;;;;4.70;1.58;;;;;;;;;;4969037;28;20130;-60
2022/05/11 08:05:48;;;;;;;6.82;1.40;;;;;;;;;;4995789;28;20136;-60
2022/05/11 08:08:14;;;;;;;6.03;1.40;;;;;;;;;;5009884;28;20037;-60
2022/05/11 08:10:41;;;;;;;8.10;1.67;;;;;;;;;;5025753;28;20038;-60
2022/05/11 08:13:09;;;;;;;7.72;1.92;;;;;;;;;;5035401;28;20037;-60
2022/05/11 08:15:37;;;;;;;6.50;1.60;;;;;;;;;;5034827;28;20091;-60
2022/05/11 08:18:04;;;;;;;5.85;1.90;;;;;;;;;;5021651;28;20284;-60
2022/05/11 08:20:33;;;;;;;11.35;2.00;;;;;;;;;;5023497;28;20034;-62
2022/05/11 08:23:00;;;;;;;9.10;1.80;;;;;;;;;;5026863;28;20126;-62
2022/05/11 08:25:27;;;;;;;6.40;1.92;;;;;;;;;;5031877;28;20495;-63
2022/05/11 08:27:54;;;;;;;5.57;1.40;;;;;;;;;;5036987;28;20495;-62
2022/05/11 08:33:19;;;;;;;9.80;1.58;;;;;;;;;;5030268;28;20046;-63
2022/05/11 08:35:45;;;;;;;2.47;1.15;;;;;;;;;;5039290;28;20029;-63
2022/05/11 08:38:11;;;;;;;9.15;1.42;;;;;;;;;;5035451;28;20033;-63
2022/05/11 08:40:37;;;;;;;10.20;1.40;;;;;;;;;;5031826;28;20080;-63
2022/05/11 08:43:05;;;;;;;4.80;1.02;;;;;;;;;;5027019;28;20052;-64
2022/05/11 08:45:52;;;;;;;5.10;1.35;;;;;;;;;;5027725;28;20038;-64
2022/05/11 08:48:27;;;;;;;4.43;1.10;;;;;;;;;;5001743;28;20057;-63
2022/05/11 08:50:53;;;;;;;5.05;1.02;;;;;;;;;;5020303;28;20044;-64
2022/05/11 08:53:35;;;;;;;7.13;1.33;;;;;;;;;;5031577;28;20045;-63
2022/05/11 08:56:05;;;;;;;4.00;1.30;;;;;;;;;;5032077;28;20037;-64
2022/05/11 08:58:34;;;;;;;7.10;1.50;;;;;;;;;;5027679;28;20124;-63
2022/05/11 09:01:01;;;;;;;5.38;1.55;;;;;;;;;;5043213;22;20130;-66
2022/05/11 09:03:31;;;;;;;4.63;1.30;;;;;;;;;;5033208;28;20045;-65
2022/05/11 09:06:01;;;;;;;6.78;1.48;;;;;;;;;;5030328;28;20061;-65
2022/05/11 09:08:29;;;;;;;47.75;5.45;;;;;;;;;;5024530;28;20129;-66
2022/05/11 09:10:55;;;;;;;8.68;1.60;;;;;;;;;;5015028;28;20038;-66
2022/05/11 09:13:23;;;;;;;9.48;1.92;;;;;;;;;;5014414;28;20045;-65
2022/05/11 09:15:55;;;;;;;17.33;2.03;;;;;;;;;;5020100;28;20449;-66
2022/05/11 09:18:22;;;;;;;7.15;1.60;;;;;;;;;;5022166;28;20344;-66
2022/05/11 09:20:50;;;;;;;5.50;1.50;;;;;;;;;;5018401;28;20038;-66
2022/05/11 09:23:26;;;;;;;8.85;1.70;;;;;;;;;;5021876;28;20488;-66
2022/05/11 09:25:57;;;;;;;6.90;1.60;;;;;;;;;;5017799;28;20049;-66
2022/05/11 09:28:23;;;;;;;;;;;;;;;;;;5017436;28;20041;-66
2022/05/11 09:30:57;;;;;;;5.95;1.20;;;;;;;;;;5020067;28;19917;-65
2022/05/11 09:33:25;;;;;;;10.05;1.35;;;;;;;;;;5019004;28;20108;-66
2022/05/11 09:35:51;;;;;;;6.43;1.50;;;;;;;;;;5019781;28;20129;-65
2022/05/11 09:38:19;;;;;;;5.60;1.58;;;;;;;;;;5024954;28;20112;-66
2022/05/11 09:41:09;;;;;;;8.82;1.42;;;;;;;;;;5016399;28;20030;-66
2022/05/11 09:43:38;;;;;;;5.47;1.20;;;;;;;;;;5010897;28;20129;-66
2022/05/11 09:46:22;;;;;;;7.20;1.33;;;;;;;;;;5013724;28;20466;-66
2022/05/11 09:48:58;;;;;;;4.22;1.40;;;;;;;;;;5019832;28;20038;-66
2022/05/11 09:51:35;;;;;;;5.90;1.25;;;;;;;;;;5017958;28;20033;-66
2022/05/11 09:54:14;;;;;;;3.30;1.00;;;;;;;;;;5014741;28;20038;-66
2022/05/11 09:56:46;;;;;;;4.05;1.10;;;;;;;;;;5018584;28;20037;-66
2022/05/11 09:59:37;;;;;;;3.60;1.02;;;;;;;;;;5013163;28;20053;-66
2022/05/11 10:02:22;;;;;;;5.13;0.80;;;;;;;;;;5013627;28;20091;-65
2022/05/11 10:05:00;;;;;;;6.78;1.00;;;;;;;;;;5028762;28;20046;-63
2022/05/11 10:07:27;;;;;;;7.38;1.65;;;;;;;;;;5024046;28;20456;-64
2022/05/11 10:09:55;;;;;;;6.07;1.08;;;;;;;;;;5028763;28;20037;-64
2022/05/11 10:12:24;;;;;;;5.65;0.90;;;;;;;;;;5021550;28;20084;-63
2022/05/11 10:23:53;;;;;;;6.35;1.25;;;;;;;;;;5000855;28;20662;-64
2022/05/11 10:26:21;;;;;;;5.78;1.20;;;;;;;;;;4994726;28;20567;-63
2022/05/11 10:29:07;;;;;;;5.28;1.00;;;;;;;;;;5030985;28;20581;-64
2022/05/11 10:31:45;;;;;;;4.45;1.05;;;;;;;;;;5028588;28;20443;-63
2022/05/11 10:34:30;;;;;;;5.90;1.02;;;;;;;;;;5006419;28;20045;-64
2022/05/11 10:37:19;;;;;;;3.97;0.80;;;;;;;;;;5019567;28;20069;-64
2022/05/11 10:40:02;;;;;;;5.30;0.70;;;;;;;;;;5018269;28;20050;-64
2022/05/11 10:42:41;;;;;;;4.15;1.30;;;;;;;;;;4998709;28;20038;-63
2022/05/11 10:45:27;;;;;;;4.35;1.30;;;;;;;;;;4996803;28;20514;-64
2022/05/11 10:47:53;;;;;;;7.82;1.17;;;;;;;;;;5014769;28;20042;-64
2022/05/11 10:50:40;;;;;;;5.68;1.00;;;;;;;;;;5017214;28;20060;-64
2022/05/11 10:53:12;;;;;;;4.70;1.20;;;;;;;;;;5022876;28;20033;-64
2022/05/11 10:55:38;;;;;;;3.65;0.90;;;;;;;;;;5017149;28;20420;-64
2022/05/11 10:58:07;;;;;;;2.03;0.80;;;;;;;;;;5016428;28;20033;-64
2022/05/11 11:00:36;;;;;;;3.78;0.70;;;;;;;;;;5012780;28;20056;-64
2022/05/11 11:03:21;;;;;;;3.40;0.80;;;;;;;;;;5021037;28;20284;-64
2022/05/11 11:05:47;;;;;;;3.30;1.10;;;;;;;;;;5022781;28;20033;-64
2022/05/11 11:08:19;;;;;;;5.28;1.15;;;;;;;;;;5013468;28;20048;-64
2022/05/11 11:10:58;;;;;;;7.30;1.27;;;;;;;;;;5016206;28;20060;-64
2022/05/11 11:13:30;;;;;;;8.02;1.30;;;;;;;;;;5016483;28;20044;-64
2022/05/11 11:15:57;;;;;;;4.72;1.15;;;;;;;;;;5009406;28;20033;-64
2022/05/11 11:18:29;;;;;;;4.65;0.90;;;;;;;;;;5012831;28;20045;-64
2022/05/11 11:21:01;;;;;;;8.48;1.15;;;;;;;;;;5015928;28;20042;-64
2022/05/11 11:23:27;;;;;;;6.07;0.90;;;;;;;;;;5008737;28;20045;-64
2022/05/11 11:26:01;;;;;;;7.57;1.10;;;;;;;;;;5012299;28;20061;-64
2022/05/11 11:28:50;;;;;;;8.27;1.08;;;;;;;;;;5013630;28;20030;-64
2022/05/11 11:31:19;;;;;;;9.10;1.27;;;;;;;;;;4975432;28;20049;-64
2022/05/11 11:33:57;;;;;;;4.25;0.90;;;;;;;;;;5010670;28;20062;-64
2022/05/11 11:36:28;;;;;;;3.60;0.95;;;;;;;;;;5011899;28;20045;-64
2022/05/11 11:38:56;;;;;;;3.92;1.13;;;;;;;;;;5011314;28;20431;-64
2022/05/11 11:41:28;;;;;;;6.43;0.90;;;;;;;;;;5012266;28;20132;-64
2022/05/11 11:44:05;;;;;;;3.47;0.95;;;;;;;;;;5027418;28;20049;-64
2022/05/11 11:46:41;;;;;;;6.63;1.00;;;;;;;;;;5021788;28;20121;-64
2022/05/11 11:49:07;;;;;;;1.88;0.90;;;;;;;;;;5021041;28;20042;-64
2022/05/11 11:51:50;;;;;;;5.70;1.02;;;;;;;;;;5013905;28;20121;-64
2022/05/11 11:54:36;;;;;;;3.30;0.93;;;;;;;;;;5014103;28;20399;-64
2022/05/11 11:57:03;;;;;;;2.70;1.08;;;;;;;;;;5016874;28;20033;-64
2022/05/11 11:59:29;;;;;;;4.88;0.90;;;;;;;;;;5022158;28;20053;-64
2022/05/11 12:01:57;;;;;;;5.30;0.85;;;;;;;;;;5019547;28;20052;-64
2022/05/11 12:04:32;;;;;;;4.53;1.10;;;;;;;;;;5019780;28;20038;-64
2022/05/11 12:15:30;;;;;;;6.50;1.20;;;;;;;;;;5011758;28;20407;-64
2022/05/11 12:17:56;;;;;;;2.60;0.80;;;;;;;;;;5010256;28;20112;-64
2022/05/11 12:20:22;;;;;;;6.68;1.23;;;;;;;;;;5009197;28;20044;-64
2022/05/11 12:22:57;;;;;;;5.90;1.15;;;;;;;;;;5016521;28;20095;-64
2022/05/11 12:25:29;;;;;;;4.20;0.85;;;;;;;;;;5017685;28;20060;-64
2022/05/11 12:27:56;;;;;;;9.70;1.23;;;;;;;;;;5010325;28;20049;-65
2022/05/11 12:30:32;;;;;;;4.40;0.98;;;;;;;;;;5013858;28;20066;-64
2022/05/11 12:33:07;;;;;;;5.68;1.23;;;;;;;;;;5010249;28;20049;-64
2022/05/11 12:35:35;;;;;;;8.20;1.17;;;;;;;;;;5019879;28;20048;-64
2022/05/11 12:38:01;;;;;;;6.07;1.10;;;;;;;;;;5011108;28;20048;-64
2022/05/11 12:40:27;;;;;;;8.45;1.23;;;;;;;;;;5011551;28;20037;-64
2022/05/11 12:42:55;;;;;;;4.78;1.23;;;;;;;;;;5008624;28;20050;-64
2022/05/11 12:45:23;;;;;;;4.32;1.23;;;;;;;;;;5010579;28;20050;-64
2022/05/11 12:48:02;;;;;;;5.10;1.10;;;;;;;;;;5009116;28;20042;-64
2022/05/11 12:50:29;;;;;;;5.03;1.25;;;;;;;;;;5017213;28;20045;-64
2022/05/11 12:53:06;;;;;;;4.18;1.30;;;;;;;;;;5005977;28;20197;-63
2022/05/11 12:55:34;;;;;;;6.43;1.50;;;;;;;;;;5014915;28;20029;-63
2022/05/11 12:58:01;;;;;;;7.28;1.52;;;;;;;;;;5012931;28;20435;-63
2022/05/11 13:00:29;;;;;;;6.82;1.48;;;;;;;;;;5011183;28;20038;-63
2022/05/11 13:02:56;;;;;;;12.00;1.73;;;;;;;;;;5004376;28;20624;-64
2022/05/11 13:05:22;;;;;;;4.35;0.93;;;;;;;;;;5011423;28;20092;-62
2022/05/11 13:08:03;;;;;;;5.47;1.30;;;;;;;;;;5007818;28;20053;-62
2022/05/11 13:10:29;;;;;;;17.83;2.45;;;;;;;;;;5007665;28;20121;-63
2022/05/11 13:12:58;;;;;;;7.40;1.55;;;;;;;;;;5007261;28;20473;-64
2022/05/11 13:15:38;;;;;;;8.15;1.55;;;;;;;;;;5007678;28;20042;-64
2022/05/11 13:18:06;;;;;;;6.63;1.30;;;;;;;;;;5008969;28;20037;-63
2022/05/11 13:20:50;;;;;;;7.60;1.40;;;;;;;;;;5009422;28;20037;-64
2022/05/11 13:23:22;;;;;;;7.45;1.48;;;;;;;;;;5013268;28;20084;-63
2022/05/11 13:25:51;;;;;;;7.28;1.30;;;;;;;;;;5012972;28;20042;-63
2022/05/11 13:28:22;;;;;;;6.43;1.80;;;;;;;;;;5007030;28;20077;-62
2022/05/11 13:30:49;;;;;;;12.90;2.00;;;;;;;;;;5011956;28;20046;-63
2022/05/11 13:33:33;;;;;;;8.65;1.40;;;;;;;;;;5026437;28;20041;-64
2022/05/11 13:36:08;;;;;;;4.65;1.15;;;;;;;;;;5009434;28;20034;-64
2022/05/11 13:38:34;;;;;;;5.10;1.70;;;;;;;;;;5011462;28;20038;-63
2022/05/11 13:41:02;;;;;;;5.93;1.40;;;;;;;;;;5015578;28;20462;-63
2022/05/11 13:43:29;;;;;;;6.57;1.75;;;;;;;;;;5017148;28;20046;-63
2022/05/11 13:45:58;;;;;;;6.63;1.83;;;;;;;;;;5016735;28;20034;-64
2022/05/11 13:48:26;;;;;;;7.25;1.48;;;;;;;;;;5023220;28;20042;-64
2022/05/11 13:50:52;;;;;;;8.55;1.60;;;;;;;;;;5013921;28;20045;-64
2022/05/11 13:53:23;;;;;;;9.77;1.52;;;;;;;;;;5016112;28;20432;-64
2022/05/11 13:55:58;;;;;;;12.40;1.92;;;;;;;;;;5024082;28;20697;-63
2022/05/11 13:58:44;;;;;;;7.60;1.63;;;;;;;;;;5019555;28;20495;-64
2022/05/11 14:01:16;;;;;;;4.82;1.73;;;;;;;;;;5017483;28;20088;-64
2022/05/11 14:03:49;;;;;;;7.95;2.13;;;;;;;;;;5012996;28;20553;-63
2022/05/11 14:06:23;;;;;;;9.10;1.65;;;;;;;;;;5025076;28;20045;-63
2022/05/11 14:08:50;;;;;;;10.88;1.70;;;;;;;;;;5020930;28;20128;-64
2022/05/11 14:11:17;;;;;;;7.82;1.38;;;;;;;;;;5013958;28;20034;-64
2022/05/11 14:13:44;;;;;;;8.80;1.58;;;;;;;;;;5020546;28;20114;-64
2022/05/11 14:16:10;;;;;;;7.22;1.80;;;;;;;;;;5025035;28;20168;-63
2022/05/11 14:18:41;;;;;;;13.23;2.25;;;;;;;;;;5023967;28;20061;-64
2022/05/11 14:21:07;;;;;;;10.48;2.45;;;;;;;;;;5026051;28;20068;-64
2022/05/11 14:23:33;;;;;;;5.68;2.05;;;;;;;;;;5018079;28;20038;-63
2022/05/11 14:25:59;;;;;;;10.80;1.65;;;;;;;;;;5021110;28;20034;-63
2022/05/11 14:28:25;;;;;;;9.07;1.83;;;;;;;;;;5015122;28;20578;-63
2022/05/11 14:30:53;;;;;;;6.15;1.80;;;;;;;;;;5015208;28;20120;-63
2022/05/11 14:33:19;;;;;;;10.43;1.88;;;;;;;;;;5013024;28;20077;-64
2022/05/11 14:35:46;;;;;;;6.70;1.70;;;;;;;;;;5022848;28;20029;-63
2022/05/11 14:38:13;;;;;;;13.07;2.08;;;;;;;;;;5027099;28;20400;-63
2022/05/11 14:40:39;;;;;;;7.72;1.90;;;;;;;;;;5024242;28;20491;-63
2022/05/11 14:43:05;;;;;;;10.80;2.28;;;;;;;;;;5017186;28;20034;-63
2022/05/11 14:45:34;;;;;;;8.43;1.92;;;;;;;;;;5011407;28;20451;-63
2022/05/11 14:48:01;;;;;;;9.43;1.83;;;;;;;;;;5023427;28;20042;-64
2022/05/11 14:50:28;;;;;;;7.47;1.63;;;;;;;;;;5017493;28;20411;-64
2022/05/11 14:52:55;;;;;;;10.88;2.22;;;;;;;;;;5007744;28;20519;-64
2022/05/11 14:55:21;;;;;;;9.35;2.00;;;;;;;;;;5021227;28;20048;-64
2022/05/11 15:03:18;;;;;;;7.00;2.00;;;;;;;;;;5044177;28;20041;-61
2022/05/11 15:05:45;;;;;;;10.73;2.10;;;;;;;;;;5047163;28;20033;-61
2022/05/11 15:08:11;;;;;;;12.27;3.03;;;;;;;;;;5045839;28;20083;-60
2022/05/11 15:10:37;;;;;;;9.55;2.30;;;;;;;;;;5031634;28;20049;-61
2022/05/11 15:15:48;;;;;;;7.18;1.80;;;;;;;;;;5049937;28;20053;-61
2022/05/11 15:18:16;;;;;;;9.85;1.92;;;;;;;;;;5050587;28;20525;-61
2022/05/11 15:20:42;;;;;;;9.43;1.60;;;;;;;;;;5049613;28;20069;-61
2022/05/11 15:23:09;;;;;;;9.65;2.17;;;;;;;;;;5049324;28;20044;-61
2022/05/11 15:25:35;;;;;;;5.55;1.60;;;;;;;;;;5052211;28;20090;-61
2022/05/11 15:28:01;;;;;;;12.05;1.80;;;;;;;;;;5052329;28;20395;-61
2022/05/11 15:30:27;;;;;;;8.27;1.55;;;;;;;;;;5046957;28;20094;-61
2022/05/11 15:32:58;;;;;;;8.48;1.90;;;;;;;;;;5048523;28;20376;-61
2022/05/11 15:35:26;;;;;;;12.57;1.50;;;;;;;;;;5032684;28;20125;-61
2022/05/11 15:37:52;;;;;;;5.53;1.55;;;;;;;;;;5047671;28;20037;-61
2022/05/11 15:40:18;;;;;;;8.07;1.75;;;;;;;;;;5045833;28;20147;-61